Nearby METAR Reports

 

KMTN - Baltimore/Martin, Maryland, USA
Distance from station: SSE 8mi, 13km
Updated: Fri, 25-Jul-2014 3:45pm EDT
Clear
Clear
 Wind from calm
Wind: Calm
Temperature: 81°F , 27°C
Dew Point: 52°F , 11°C
Humidity: 37%
Barometer: 30.01 inHg , 1016.3 hPa
Clouds: Clear
Visibility: 10 miles , 16 km
2014/07/25 19:45 KMTN 251945Z 00000KT 10SM SKC 27/11 A3001
KDMH - Baltimore/Dwntwn, Maryland, USA
Distance from station: SW 12mi, 19km
Updated: Fri, 25-Jul-2014 3:54pm EDT

 
Temperature: 82°F , 28°C
Dew Point: 50°F , 10°C
Humidity: 32%
Barometer: 30.00 inHg , 1015.9 hPa
2014/07/25 19:54 KDMH 251954Z AUTO 28/10 A3000 RMK AO1 SLP157 T02780100
 
KBWI - Balto/Wash Intl, Maryland, USA
Distance from station: SSW 20mi, 33km
Updated: Fri, 25-Jul-2014 3:54pm EDT
Partly cloudy
Partly cloudy
 Wind from N
Wind: N 6 mph , 9 km/h
Temperature: 82°F , 28°C
Dew Point: 52°F , 11°C
Humidity: 35%
Barometer: 30.00 inHg , 1015.9 hPa
Clouds: Partly cloudy
Visibility: 10 miles , 16 km
Cloud details: Few Clouds 4000 ft
Partly cloudy 25000 ft
2014/07/25 19:54 KBWI 251954Z 01005KT 10SM FEW040 SCT250 28/11 A3000 RMK AO2 SLP156 T02780106
KDMW - Carroll Cnty, Maryland, USA
Distance from station: WNW 30mi, 48km
Updated: Fri, 25-Jul-2014 4:20pm EDT
Clear
Clear
 Wind from NNW
Wind: NNW 3 mph , 6 km/h
Temperature: 79°F , 26°C
Dew Point: 61°F , 16°C
Humidity: 54%
Barometer: 30.03 inHg , 1016.9 hPa
Clouds: Clear
Visibility: 10 miles , 16 km
2014/07/25 20:20 KDMW 252020Z AUTO 33003KT 10SM CLR 26/16 A3003 RMK AO2
 
KNAK - Annapolis/Naval, Maryland, USA
Distance from station: S 30mi, 48km
Updated: Fri, 25-Jul-2014 3:54pm EDT
Clear
Clear
 Wind from ESE
Wind: ESE 12 mph , 19 km/h
Temperature: 79°F , 26°C
Dew Point: 55°F , 13°C
Humidity: 45%
Barometer: 30.00 inHg , 1015.9 hPa
Clouds: Clear
Visibility: 10 miles , 16 km
2014/07/25 19:54 KNAK 251954Z AUTO 12010KT 10SM CLR 26/13 A3000 RMK AO2 SLP160 T02560133
KW29 - Stevensville, Maryland, USA
Distance from station: SSE 31mi, 50km
Updated: Fri, 25-Jul-2014 4:22pm EDT

 Wind from NE
Wind: NE 3 mph , 6 km/h
Temperature: 79°F , 26°C
Dew Point: 46°F , 8°C
Humidity: 32%
Barometer: 30.00 inHg , 1015.9 hPa
Visibility: 10 miles , 16 km
2014/07/25 20:22 KW29 252022Z AUTO 04003KT 10SM 26/08 A3000 RMK AO1
 
KCGS - College Park, Maryland, USA
Distance from station: SW 38mi, 61km
Updated: Fri, 25-Jul-2014 4:20pm EDT
Clear
Clear
 Wind from WSW
Wind: WSW 3 mph , 6 km/h
Temperature: 82°F , 28°C
Dew Point: 50°F , 10°C
Humidity: 32%
Barometer: 29.99 inHg , 1015.6 hPa
Clouds: Clear
Visibility: 10 miles , 16 km
2014/07/25 20:20 KCGS 252020Z AUTO 24003KT 10SM CLR 28/10 A2999 RMK AO1
KGAI - Gaithersburg, Maryland, USA
Distance from station: WSW 40mi, 65km
Updated: Fri, 25-Jul-2014 4:15pm EDT
Clear
Clear
 Wind from WNW
Wind: WNW 8 mph , 13 km/h
Temperature: 79°F , 26°C
Dew Point: 52°F , 11°C
Humidity: 39%
Barometer: 30.05 inHg , 1017.6 hPa
Clouds: Clear
Visibility: 10 miles , 16 km
2014/07/25 20:15 KGAI 252015Z AUTO 29007KT 10SM CLR 26/11 A3005 RMK AO1
 
KTHV - York, Pennsylvania, USA
Distance from station: NNW 40mi, 65km
Updated: Fri, 25-Jul-2014 3:53pm EDT
Clear
Clear
 Wind from calm
Wind: Calm
Temperature: 79°F , 26°C
Dew Point: 46°F , 8°C
Humidity: 32%
Barometer: 30.01 inHg , 1016.3 hPa
Clouds: Clear
Visibility: 10 miles , 16 km
2014/07/25 19:53 KTHV 251953Z AUTO 00000KT 10SM CLR 26/08 A3001 RMK AO2 SLP163 T02610083
KFDK - Frederick, Maryland, USA
Distance from station: W 47mi, 75km
Updated: Fri, 25-Jul-2014 3:45pm EDT
Clear
Clear
 Wind from calm
Wind: Calm
Temperature: 82°F , 28°C
Heat Index: 82°F , 28°C
Dew Point: 57°F , 14°C
Humidity: 42%
Barometer: 30.04 inHg , 1017.3 hPa
Clouds: Clear
Visibility: 10 miles , 16 km
2014/07/25 19:45 KFDK 251945Z 00000KT 10SM SKC 28/14 A3004
 
KESN - Easton/Newnam, Maryland, USA
Distance from station: SSE 48mi, 78km
Updated: Fri, 25-Jul-2014 3:50pm EDT
Clear
Clear
 Wind from NE
Wind: NE 6 mph , 9 km/h
Temperature: 81°F , 27°C
Heat Index: 81°F , 27°C
Dew Point: 55°F , 13°C
Humidity: 42%
Barometer: 30.04 inHg , 1017.3 hPa
Clouds: Clear
Visibility: 10 miles , 16 km
2014/07/25 19:50 KESN 251950Z 05005KT 10SM SKC 27/13 A3004
KDCA - Washington/Natl, Washington D.c., USA
Distance from station: SW 49mi, 79km
Updated: Fri, 25-Jul-2014 3:52pm EDT
Partly cloudy
Partly cloudy
 Wind from NE
Wind: NE 6 mph , 9 km/h
Temperature: 84°F , 29°C
Dew Point: 54°F , 12°C
Humidity: 35%
Barometer: 30.00 inHg , 1015.9 hPa
Clouds: Partly cloudy
Visibility: 10 miles , 16 km
Cloud details: Few Clouds 6000 ft
Partly cloudy 25000 ft
2014/07/25 19:52 KDCA 251952Z 05005KT 10SM FEW060 SCT250 29/12 A3000 RMK AO2 SLP159 T02890122
 
KLNS - Lancaster, Pennsylvania, USA
Distance from station: N 49mi, 79km
Updated: Fri, 25-Jul-2014 3:53pm EDT
Clear
Clear
 Wind from ENE
Wind: ENE 5 mph , 7 km/h
Temperature: 79°F , 26°C
Dew Point: 55°F , 13°C
Humidity: 45%
Barometer: 30.00 inHg , 1015.9 hPa
Clouds: Clear
Visibility: 10 miles , 16 km
2014/07/25 19:53 KLNS 251953Z 06004KT 10SM CLR 26/13 A3000 RMK AO2 SLP157 T02560128
KILG - Wilmington, Delaware, USA
Distance from station: ENE 50mi, 81km
Updated: Fri, 25-Jul-2014 3:51pm EDT
Clear
Clear
 Wind from SSE
Wind: SSE 10 mph , 17 km/h
Temperature: 81°F , 27°C
Heat Index: 81°F , 27°C
Dew Point: 57°F , 14°C
Humidity: 45%
Barometer: 29.99 inHg , 1015.6 hPa
Clouds: Clear
Visibility: 10 miles , 16 km
2014/07/25 19:51 KILG 251951Z 15009KT 10SM CLR 27/14 A2999 RMK AO2 SLP155 T02670139